Time;durP1;ratioP1;P1;durP2;ratioP2;P2;SDS_P1;SDS_P2;PMS_P1;PMS_P2;Temp;Humidity;BMP_temperature;BMP_pressure;BME280_temperature;BME280_humidity;BME280_pressure;Samples;Min_cycle;Max_cycle;Signal;HPM_P1;HPM_P2
2021/03/08 00:00:38;;;;;;;6.88;1.38;;;;;;;30.65;29.51;98583.41;5033882;28;20520;-70
2021/03/08 00:03:06;;;;;;;5.10;1.42;;;;;;;30.19;29.87;98589.63;5033509;28;20626;-70
2021/03/08 00:05:33;;;;;;;8.05;1.63;;;;;;;31.63;28.70;98593.25;5033412;28;20382;-70
2021/03/08 00:08:00;;;;;;;4.40;1.60;;;;;;;30.65;29.62;98605.00;5033115;28;20205;-69
2021/03/08 00:10:26;;;;;;;3.25;1.63;;;;;;;30.27;30.23;98597.50;5033351;28;20279;-69
2021/03/08 00:12:52;;;;;;;3.00;1.40;;;;;;;31.91;27.57;98602.88;5032921;28;20224;-70
2021/03/08 00:15:19;;;;;;;5.80;1.65;;;;;;;31.02;28.84;98602.66;5033222;28;20220;-69
2021/03/08 00:17:47;;;;;;;3.58;1.50;;;;;;;30.42;30.08;98602.72;5033351;28;20212;-69
2021/03/08 00:20:15;;;;;;;4.15;1.23;;;;;;;31.07;29.59;98597.44;5032830;28;20521;-69
2021/03/08 00:22:42;;;;;;;3.35;1.40;;;;;;;31.17;29.16;98602.38;5033525;28;20238;-69
2021/03/08 00:25:13;;;;;;;2.72;1.60;;;;;;;30.61;29.72;98604.59;5032929;28;20310;-69
2021/03/08 00:27:39;;;;;;;4.88;1.67;;;;;;;30.12;30.43;98595.03;5032002;28;20271;-69
2021/03/08 00:30:07;;;;;;;3.75;1.40;;;;;;;31.65;27.82;98599.28;5032591;28;20277;-69
2021/03/08 00:32:34;;;;;;;4.72;1.38;;;;;;;30.66;29.61;98603.97;5033044;28;20368;-66
2021/03/08 00:35:01;;;;;;;2.60;1.38;;;;;;;30.20;30.13;98594.81;5033138;28;20286;-69
2021/03/08 00:37:31;;;;;;;4.45;1.60;;;;;;;31.91;27.88;98592.88;5033192;28;20204;-69
2021/03/08 00:39:57;;;;;;;4.90;1.90;;;;;;;30.82;29.44;98594.56;5032716;28;20208;-69
2021/03/08 00:42:24;;;;;;;4.93;1.50;;;;;;;30.25;29.95;98591.50;5032893;28;20193;-69
2021/03/08 00:44:50;;;;;;;3.45;1.40;;;;;;;31.68;27.84;98598.03;5032792;28;20200;-69
2021/03/08 00:47:16;;;;;;;3.30;1.40;;;;;;;31.03;29.22;98595.34;5032666;28;20200;-69
2021/03/08 00:49:42;;;;;;;6.43;1.63;;;;;;;30.55;29.91;98591.09;5032494;28;20295;-69
2021/03/08 00:52:09;;;;;;;3.75;1.50;;;;;;;30.54;30.28;98590.25;5032552;28;20208;-69
2021/03/08 00:54:35;;;;;;;2.88;1.33;;;;;;;31.22;28.64;98590.94;5032442;28;20310;-68
2021/03/08 00:57:01;;;;;;;3.58;1.60;;;;;;;30.59;29.33;98589.63;5032305;28;20208;-69
2021/03/08 00:59:28;;;;;;;4.18;1.40;;;;;;;30.34;29.87;98592.13;5031961;28;20671;-69
2021/03/08 01:01:54;;;;;;;4.07;1.50;;;;;;;31.66;28.63;98586.56;5032141;28;20231;-70
2021/03/08 01:04:20;;;;;;;3.55;1.27;;;;;;;30.65;29.59;98583.41;5032541;28;20206;-69
2021/03/08 01:06:46;;;;;;;2.38;1.30;;;;;;;30.23;30.08;98586.31;5031792;28;20808;-69
2021/03/08 01:09:12;;;;;;;4.93;1.35;;;;;;;31.76;27.69;98589.66;5031989;28;20218;-69
2021/03/08 01:11:39;;;;;;;4.22;1.20;;;;;;;30.96;28.95;98581.88;5032823;28;20218;-69
2021/03/08 01:14:05;;;;;;;4.15;1.70;;;;;;;30.38;29.75;98582.63;5031761;28;20659;-69
2021/03/08 01:16:32;;;;;;;2.15;1.30;;;;;;;30.66;29.94;98584.22;5032247;28;20311;-69
2021/03/08 01:18:58;;;;;;;2.78;1.38;;;;;;;31.13;29.02;98579.56;5031789;28;20241;-69
2021/03/08 01:21:24;;;;;;;2.70;1.40;;;;;;;30.50;29.79;98580.94;5032152;28;20192;-69
2021/03/08 01:23:50;;;;;;;5.90;1.40;;;;;;;30.11;29.95;98577.19;5031754;28;20671;-69
2021/03/08 01:26:16;;;;;;;4.50;1.42;;;;;;;31.42;28.58;98580.03;5031705;28;20226;-69
2021/03/08 01:28:42;;;;;;;2.42;1.25;;;;;;;30.54;29.66;98578.63;5032486;28;20578;-70
2021/03/08 01:31:08;;;;;;;2.20;1.33;;;;;;;30.13;30.17;98574.28;5031983;28;20544;-69
2021/03/08 01:33:35;;;;;;;2.55;1.10;;;;;;;31.67;27.74;98575.53;5031517;28;20310;-69
2021/03/08 01:36:01;;;;;;;4.15;1.00;;;;;;;30.74;29.07;98567.81;5031491;28;20216;-69
2021/03/08 01:38:27;;;;;;;3.00;1.00;;;;;;;30.25;29.76;98573.44;5031792;28;20322;-69
2021/03/08 01:40:54;;;;;;;1.65;1.00;;;;;;;30.97;29.65;98567.34;5030913;28;20243;-69
2021/03/08 01:43:24;;;;;;;3.10;1.42;;;;;;;30.98;28.97;98567.13;5031739;28;20207;-69
2021/03/08 01:45:51;;;;;;;2.60;1.25;;;;;;;30.40;29.47;98567.03;5031768;28;20319;-69
2021/03/08 01:48:17;;;;;;;2.67;1.00;;;;;;;29.98;30.47;98567.22;5031360;28;20699;-69
2021/03/08 01:50:46;;;;;;;3.95;1.17;;;;;;;31.22;28.86;98556.66;5031748;28;20282;-68
2021/03/08 01:53:15;;;;;;;3.75;1.23;;;;;;;30.45;29.43;98559.16;5031488;28;20224;-69
2021/03/08 01:55:42;;;;;;;2.60;1.05;;;;;;;30.08;30.25;98556.03;5031531;28;20310;-69
2021/03/08 01:58:09;;;;;;;2.80;1.20;;;;;;;31.62;28.04;98553.75;5031843;28;20195;-69
2021/03/08 02:00:36;;;;;;;2.22;1.20;;;;;;;30.69;28.91;98563.03;5031505;28;20240;-69
2021/03/08 02:03:04;;;;;;;3.90;1.30;;;;;;;30.17;29.82;98565.56;5031600;28;20246;-69
2021/03/08 02:05:32;;;;;;;1.73;1.10;;;;;;;31.66;28.41;98565.81;5031280;28;20307;-69
2021/03/08 02:08:01;;;;;;;3.00;1.30;;;;;;;30.93;28.56;98569.63;5031089;28;20236;-69
2021/03/08 02:10:29;;;;;;;2.10;1.00;;;;;;;30.50;29.54;98563.94;5031447;28;20267;-69
2021/03/08 02:13:30;;;;;;;2.50;1.13;;;;;;;31.50;28.51;98568.97;5031383;28;20216;-69
2021/03/08 02:16:01;;;;;;;1.73;1.02;;;;;;;31.01;29.08;98570.44;4998474;28;20227;-69
2021/03/08 02:18:42;;;;;;;4.35;1.42;;;;;;;30.34;29.78;98570.53;5031410;28;20303;-69
2021/03/08 02:21:27;;;;;;;4.80;1.20;;;;;;;31.07;29.08;98565.03;5030963;28;20189;-69
2021/03/08 02:24:20;;;;;;;4.85;1.55;;;;;;;31.86;27.81;98570.22;5031326;28;20196;-69
2021/03/08 02:26:51;;;;;;;2.42;1.00;;;;;;;30.71;29.08;98560.13;5031238;28;20228;-69
2021/03/08 02:29:46;;;;;;;1.90;1.13;;;;;;;30.11;30.13;98566.41;5030901;28;20188;-69
2021/03/08 02:32:15;;;;;;;1.65;0.90;;;;;;;31.47;28.05;98561.31;5031263;28;20299;-69
2021/03/08 02:34:47;;;;;;;4.28;1.23;;;;;;;30.76;28.83;98557.63;5030707;28;20200;-69
2021/03/08 02:37:19;;;;;;;5.05;1.27;;;;;;;30.30;29.67;98566.63;5031241;28;20191;-69
2021/03/08 02:39:49;;;;;;;2.15;1.27;;;;;;;31.58;27.69;98562.53;5030745;28;20189;-69
2021/03/08 02:42:21;;;;;;;3.88;1.27;;;;;;;30.73;28.80;98558.06;5031267;28;20198;-69
2021/03/08 02:44:48;;;;;;;3.38;1.20;;;;;;;30.35;29.21;98553.31;5030893;28;20237;-69
2021/03/08 02:47:16;;;;;;;2.75;1.17;;;;;;;31.82;27.10;98552.78;5030927;28;20358;-69
2021/03/08 02:49:46;;;;;;;2.67;1.08;;;;;;;30.95;28.46;98553.25;5030888;28;20326;-69
2021/03/08 02:52:14;;;;;;;3.38;1.10;;;;;;;30.45;29.12;98559.16;5032390;28;20224;-69
2021/03/08 02:54:45;;;;;;;2.90;1.20;;;;;;;31.47;27.59;98559.44;5034311;28;20227;-69
2021/03/08 02:57:13;;;;;;;2.50;1.00;;;;;;;31.09;27.94;98551.31;5034396;28;20188;-70
2021/03/08 02:59:42;;;;;;;2.58;1.15;;;;;;;30.49;29.26;98551.47;5034435;28;20200;-69
2021/03/08 03:02:09;;;;;;;2.22;1.00;;;;;;;30.54;29.12;98546.25;5034679;28;20295;-69
2021/03/08 03:04:39;;;;;;;2.70;1.08;;;;;;;31.24;28.41;98551.84;5033927;28;20212;-69
2021/03/08 03:07:07;;;;;;;3.95;1.20;;;;;;;30.51;28.90;98554.78;5034425;28;20287;-69
2021/03/08 03:09:35;;;;;;;3.67;1.27;;;;;;;30.09;29.50;98546.91;5034100;28;20674;-69
2021/03/08 03:12:02;;;;;;;2.00;1.00;;;;;;;29.78;29.92;98550.19;5033901;28;20295;-69
2021/03/08 03:14:29;;;;;;;3.88;1.30;;;;;;;29.26;30.52;98550.69;5034387;28;20267;-69
2021/03/08 03:17:01;;;;;;;1.75;1.20;;;;;;;30.01;29.94;98545.25;5033982;28;20685;-69
2021/03/08 03:19:30;;;;;;;1.98;1.02;;;;;;;32.24;27.02;98553.94;5034200;28;20219;-69
2021/03/08 03:22:01;;;;;;;2.92;1.23;;;;;;;31.04;27.90;98553.81;5034207;28;20295;-69
2021/03/08 03:24:29;;;;;;;5.55;1.27;;;;;;;30.68;28.73;98544.34;5033987;28;20189;-69
2021/03/08 03:26:56;;;;;;;1.80;1.10;;;;;;;30.68;29.31;98549.75;5034477;28;20300;-69
2021/03/08 03:29:23;;;;;;;3.78;1.23;;;;;;;32.61;26.13;98548.63;5034633;28;20291;-69
2021/03/08 03:31:50;;;;;;;3.20;1.17;;;;;;;31.12;28.12;98561.69;5034485;28;20291;-70
2021/03/08 03:34:17;;;;;;;2.20;1.23;;;;;;;30.38;29.88;98567.25;5034258;28;20211;-69
2021/03/08 03:36:46;;;;;;;2.60;1.10;;;;;;;30.80;29.13;98564.25;5033807;28;20306;-68
2021/03/08 03:39:13;;;;;;;3.67;1.00;;;;;;;32.24;27.40;98570.19;5034172;28;20212;-69
2021/03/08 03:41:40;;;;;;;2.72;0.90;;;;;;;31.26;28.44;98566.00;5034428;28;20257;-69
2021/03/08 03:44:08;;;;;;;1.42;1.00;;;;;;;30.84;28.59;98568.19;5033748;28;20231;-70
2021/03/08 03:46:38;;;;;;;1.65;1.10;;;;;;;31.97;27.68;98571.41;5033605;28;20224;-69
2021/03/08 03:49:04;;;;;;;3.30;1.40;;;;;;;31.16;28.08;98571.84;5033760;28;20200;-68
2021/03/08 03:51:30;;;;;;;1.98;0.90;;;;;;;30.68;28.40;98582.13;5033335;28;20200;-69
2021/03/08 03:53:56;;;;;;;6.00;1.30;;;;;;;31.45;28.43;98571.50;5033222;28;20666;-69
2021/03/08 03:56:27;;;;;;;2.28;1.05;;;;;;;31.19;28.65;98581.38;5033555;28;20232;-69
2021/03/08 03:58:58;;;;;;;1.63;1.08;;;;;;;30.68;28.63;98587.53;5033464;28;20188;-69
2021/03/08 04:01:32;;;;;;;2.85;1.20;;;;;;;30.63;29.27;98597.09;5033711;28;20192;-68
2021/03/08 04:04:02;;;;;;;1.67;0.98;;;;;;;31.42;27.42;98588.16;5033168;28;20188;-69
2021/03/08 04:06:33;;;;;;;2.97;1.08;;;;;;;30.19;29.47;98595.84;5033251;28;20223;-69
2021/03/08 04:09:00;;;;;;;2.38;1.00;;;;;;;29.88;29.84;98599.97;5033506;28;20285;-69
2021/03/08 04:11:30;;;;;;;1.50;1.10;;;;;;;32.29;26.31;98604.66;5033253;28;20207;-69
2021/03/08 04:13:57;;;;;;;2.55;1.02;;;;;;;30.78;28.87;98599.56;5032922;28;20644;-69
2021/03/08 04:16:23;;;;;;;2.40;1.23;;;;;;;30.40;29.26;98605.63;5033018;28;20232;-69
2021/03/08 04:18:52;;;;;;;1.73;1.20;;;;;;;30.75;28.99;98615.34;5032817;28;20204;-69
2021/03/08 04:21:20;;;;;;;3.40;1.30;;;;;;;31.29;27.83;98616.91;5032845;28;20694;-69
2021/03/08 04:23:47;;;;;;;3.33;1.30;;;;;;;30.59;28.75;98614.75;5032984;28;20210;-69
2021/03/08 04:26:14;;;;;;;3.45;1.10;;;;;;;30.10;29.68;98615.97;5032488;28;20230;-69
2021/03/08 04:28:42;;;;;;;1.90;1.10;;;;;;;31.33;27.84;98618.13;5032806;28;20295;-69
2021/03/08 04:31:10;;;;;;;1.73;1.23;;;;;;;30.55;29.03;98618.91;5032509;28;20285;-69
2021/03/08 04:33:37;;;;;;;3.17;1.10;;;;;;;30.18;29.36;98623.88;5032514;28;20262;-69
2021/03/08 04:36:05;;;;;;;1.40;0.90;;;;;;;29.80;29.80;98623.63;5032403;28;20818;-69
2021/03/08 04:38:31;;;;;;;2.90;0.90;;;;;;;30.39;28.97;98619.31;5032590;28;20570;-68
2021/03/08 04:40:57;;;;;;;1.42;1.00;;;;;;;32.18;26.58;98624.34;5032234;28;20208;-69
2021/03/08 04:43:25;;;;;;;6.28;1.17;;;;;;;32.92;26.67;98632.63;5032876;28;20204;-69
2021/03/08 04:45:54;;;;;;;4.00;1.15;;;;;;;32.14;26.76;98631.22;5032331;28;20310;-68
2021/03/08 04:48:21;;;;;;;2.97;1.10;;;;;;;31.35;27.87;98626.81;5032379;28;20335;-69
2021/03/08 04:50:49;;;;;;;3.50;1.30;;;;;;;31.98;26.87;98630.69;5032586;28;20287;-69
2021/03/08 04:53:17;;;;;;;4.47;1.20;;;;;;;32.91;25.32;98636.38;5032803;28;20547;-69
2021/03/08 04:55:43;;;;;;;2.88;1.00;;;;;;;31.81;27.55;98640.34;5032375;28;20293;-69
2021/03/08 04:58:10;;;;;;;4.47;1.10;;;;;;;31.25;28.15;98644.53;5032478;28;20204;-69
2021/03/08 05:00:38;;;;;;;5.22;1.10;;;;;;;32.51;25.93;98644.88;5032313;28;20303;-69
2021/03/08 05:03:05;;;;;;;1.23;0.93;;;;;;;32.42;26.04;98647.03;5032445;28;20203;-69
2021/03/08 05:05:33;;;;;;;2.35;1.25;;;;;;;31.78;27.38;98647.03;5032018;28;20250;-69
2021/03/08 05:08:05;;;;;;;2.20;1.10;;;;;;;31.40;27.64;98642.41;5032529;28;20290;-67
2021/03/08 05:10:32;;;;;;;6.00;1.13;;;;;;;32.88;26.53;98647.69;5032219;28;20275;-68
2021/03/08 05:12:59;;;;;;;4.72;1.65;;;;;;;32.23;26.45;98643.44;5032099;28;20234;-69
2021/03/08 05:15:27;;;;;;;4.03;1.30;;;;;;;31.46;27.25;98646.09;5031026;28;20323;-69
2021/03/08 05:17:55;;;;;;;3.33;1.02;;;;;;;32.01;27.24;98643.78;5032141;28;20290;-69
2021/03/08 05:20:23;;;;;;;3.00;1.00;;;;;;;32.90;25.67;98648.28;5031455;28;20215;-68
2021/03/08 05:22:50;;;;;;;2.00;1.17;;;;;;;31.78;27.42;98647.03;5031511;28;20689;-68
2021/03/08 05:25:18;;;;;;;2.92;1.10;;;;;;;31.16;28.14;98654.75;5031506;28;20306;-69
2021/03/08 05:27:45;;;;;;;2.33;1.02;;;;;;;31.94;26.91;98651.09;5031356;28;20594;-69
2021/03/08 05:30:16;;;;;;;2.30;1.40;;;;;;;32.92;26.40;98659.72;5031811;28;20262;-69
2021/03/08 05:32:49;;;;;;;4.43;1.08;;;;;;;32.80;26.55;98654.22;5031642;28;20212;-69
2021/03/08 05:35:16;;;;;;;6.95;1.27;;;;;;;31.53;26.93;98650.47;5031732;28;20227;-68
2021/03/08 05:37:44;;;;;;;2.35;1.30;;;;;;;30.83;28.48;98650.22;5031627;28;20189;-68
2021/03/08 05:40:21;;;;;;;2.80;1.08;;;;;;;32.25;27.20;98654.88;5031546;28;20556;-68
2021/03/08 05:42:57;;;;;;;4.00;1.15;;;;;;;32.90;25.69;98659.94;5031878;28;20286;-69
2021/03/08 05:45:27;;;;;;;5.68;1.40;;;;;;;31.94;26.42;98655.66;5031924;28;20323;-68
2021/03/08 05:48:20;;;;;;;2.22;1.10;;;;;;;31.15;27.86;98659.31;5031198;28;20200;-69
2021/03/08 05:51:16;;;;;;;5.32;1.35;;;;;;;32.63;25.77;98665.63;5008830;28;20287;-69
2021/03/08 05:54:29;;;;;;;3.60;1.13;;;;;;;32.34;26.48;98667.06;5031111;28;20266;-69
2021/03/08 05:57:18;;;;;;;3.60;1.17;;;;;;;31.64;27.69;98667.91;5003732;28;20285;-69
2021/03/08 06:00:02;;;;;;;1.27;1.00;;;;;;;31.74;27.00;98667.41;5030838;28;20188;-69
2021/03/08 06:02:55;;;;;;;1.98;1.10;;;;;;;32.85;25.65;98678.75;5031786;28;20245;-69
2021/03/08 06:06:05;;;;;;;3.72;1.25;;;;;;;31.85;27.41;98674.03;5030770;28;20230;-69
2021/03/08 06:09:00;;;;;;;2.00;1.30;;;;;;;31.19;27.96;98662.41;5030801;28;20679;-69
2021/03/08 06:11:32;;;;;;;2.33;0.90;;;;;;;32.84;25.22;98674.38;5030801;28;20203;-69
2021/03/08 06:13:59;;;;;;;4.20;1.10;;;;;;;32.69;25.15;98668.50;5031002;28;20261;-69
2021/03/08 06:16:31;;;;;;;2.75;1.35;;;;;;;31.75;27.44;98670.97;5031254;28;20223;-71
2021/03/08 06:18:58;;;;;;;2.25;1.00;;;;;;;31.05;27.94;98660.81;5031257;28;20193;-68
2021/03/08 06:21:25;;;;;;;9.82;1.67;;;;;;;32.71;25.68;98669.94;5031117;28;20219;-68
2021/03/08 06:23:53;;;;;;;46.38;4.30;;;;;;;32.63;26.40;98671.03;5031210;28;20607;-69
2021/03/08 06:26:19;;;;;;;29.33;4.00;;;;;;;31.56;27.98;98665.44;5032870;28;20227;-69
2021/03/08 06:28:46;;;;;;;18.65;2.65;;;;;;;31.12;27.57;98664.31;5035014;28;20199;-66
2021/03/08 06:31:13;;;;;;;40.80;4.32;;;;;;;32.20;27.71;98670.94;5034952;28;20782;-67
2021/03/08 06:33:39;;;;;;;37.22;4.53;;;;;;;32.24;26.36;98672.13;5035123;28;20224;-65
2021/03/08 06:36:06;;;;;;;24.45;3.92;;;;;;;31.46;27.72;98678.53;5035131;28;20228;-63
2021/03/08 06:38:32;;;;;;;27.90;3.42;;;;;;;31.15;28.59;98682.81;5035181;28;20261;-64
2021/03/08 06:40:59;;;;;;;21.15;3.58;;;;;;;30.75;28.49;98682.84;5034683;28;20675;-63
2021/03/08 06:43:26;;;;;;;25.92;3.42;;;;;;;30.05;29.31;98689.38;5035009;28;20290;-66
2021/03/08 06:45:53;;;;;;;24.67;3.38;;;;;;;29.62;29.95;98694.19;5034994;28;20224;-66
2021/03/08 06:48:19;;;;;;;17.52;2.75;;;;;;;29.08;30.66;98693.91;5034823;28;20311;-61
2021/03/08 06:50:45;;;;;;;15.57;3.13;;;;;;;28.57;31.65;98699.53;5034387;28;20744;-64
2021/03/08 06:53:30;;;;;;;22.55;3.25;;;;;;;30.67;28.72;98701.94;5034516;28;20567;-60
2021/03/08 06:56:11;;;;;;;8.07;2.38;;;;;;;32.31;27.31;98701.84;5034640;28;20232;-67
2021/03/08 06:58:37;;;;;;;18.08;2.83;;;;;;;31.92;27.00;98702.69;5035086;28;20188;-65
2021/03/08 07:01:12;;;;;;;17.73;2.70;;;;;;;30.60;28.42;98710.03;5034818;28;20309;-60
2021/03/08 07:03:38;;;;;;;22.35;3.22;;;;;;;29.93;29.39;98703.66;5035213;28;20256;-60
2021/03/08 07:06:16;;;;;;;11.13;1.80;;;;;;;31.65;27.52;98699.28;5035055;28;20631;-63
2021/03/08 07:08:44;;;;;;;11.32;2.38;;;;;;;32.91;25.96;98699.53;5035448;28;20273;-66
2021/03/08 07:11:22;;;;;;;8.73;2.55;;;;;;;31.94;26.33;98704.34;5035711;28;20227;-65
2021/03/08 07:13:48;;;;;;;7.63;2.00;;;;;;;31.29;26.97;98700.66;5035557;28;20258;-66
2021/03/08 07:16:16;;;;;;;14.48;3.20;;;;;;;31.12;28.00;98704.81;5036587;28;20240;-66
2021/03/08 07:18:43;;;;;;;10.32;2.40;;;;;;;33.03;25.36;98713.16;5037606;28;20211;-65
2021/03/08 07:21:19;;;;;;;14.52;3.03;;;;;;;31.80;27.16;98712.53;5037611;28;20280;-64
2021/03/08 07:23:47;;;;;;;13.90;2.83;;;;;;;31.09;28.16;98707.94;5038031;28;20193;-65
2021/03/08 07:26:15;;;;;;;11.88;3.05;;;;;;;32.25;26.37;98704.41;5038247;28;20224;-63
2021/03/08 07:28:42;;;;;;;11.98;3.30;;;;;;;32.26;25.77;98713.34;5038567;28;20212;-64
2021/03/08 07:31:10;;;;;;;8.05;2.78;;;;;;;31.31;26.54;98722.00;5038257;28;20290;-63
2021/03/08 07:33:37;;;;;;;11.25;3.08;;;;;;;31.01;26.98;98735.16;5035398;28;20723;-62
2021/03/08 07:36:14;;;;;;;12.68;2.65;;;;;;;30.64;26.59;98738.25;5035111;28;20256;-61
2021/03/08 07:38:40;;;;;;;5.72;2.67;;;;;;;31.27;25.71;98740.53;5033423;28;20190;-65
2021/03/08 07:41:12;;;;;;;8.70;2.80;;;;;;;32.56;24.43;98739.78;5034725;28;20251;-62
2021/03/08 07:43:39;;;;;;;11.43;3.15;;;;;;;33.23;24.14;98742.81;5034537;28;20204;-60
2021/03/08 07:46:06;;;;;;;9.05;3.38;;;;;;;33.02;22.09;98738.59;5034895;28;20224;-63
2021/03/08 07:48:33;;;;;;;12.40;4.13;;;;;;;32.21;22.90;98737.50;5034251;28;20703;-61
2021/03/08 07:51:07;;;;;;;11.68;3.72;;;;;;;31.44;24.39;98745.47;5034165;28;20204;-56
2021/03/08 07:53:36;;;;;;;7.63;2.22;;;;;;;31.02;26.19;98739.53;5034312;28;20682;-57
2021/03/08 07:56:04;;;;;;;10.40;2.90;;;;;;;30.40;27.55;98737.81;5034325;28;20231;-64
2021/03/08 07:58:32;;;;;;;6.88;2.47;;;;;;;31.61;25.98;98743.16;5034349;28;20619;-62
2021/03/08 08:01:00;;;;;;;6.57;2.53;;;;;;;32.20;25.38;98741.28;5033789;28;20240;-61
2021/03/08 08:03:28;;;;;;;8.60;2.30;;;;;;;32.79;23.86;98742.75;5034041;28;20192;-62
2021/03/08 08:05:57;;;;;;;6.28;2.40;;;;;;;33.43;24.09;98742.59;5033985;28;20235;-66
2021/03/08 08:08:27;;;;;;;7.40;2.17;;;;;;;33.46;24.17;98753.00;5033791;28;20216;-59
2021/03/08 08:10:54;;;;;;;21.67;2.80;;;;;;;32.91;23.32;98747.44;5033857;28;20220;-60
2021/03/08 08:13:24;;;;;;;6.40;2.05;;;;;;;31.80;25.25;98746.84;5033655;28;20316;-62
2021/03/08 08:15:52;;;;;;;13.38;2.13;;;;;;;31.62;26.55;98744.84;5033286;28;20224;-58
2021/03/08 08:18:21;;;;;;;11.20;2.35;;;;;;;31.57;27.66;98752.75;5033417;28;20191;-65
2021/03/08 08:20:51;;;;;;;9.27;2.17;;;;;;;32.30;26.43;98749.75;5033366;28;20228;-64
2021/03/08 08:23:20;;;;;;;9.73;2.00;;;;;;;32.72;25.54;98744.69;5033396;28;20199;-63
2021/03/08 08:25:47;;;;;;;7.18;2.60;;;;;;;33.14;23.93;98757.66;5033280;28;20314;-64
2021/03/08 08:28:18;;;;;;;8.00;2.38;;;;;;;33.48;24.76;98761.72;5033510;28;20288;-68
2021/03/08 08:30:45;;;;;;;4.78;2.30;;;;;;;33.36;23.45;98758.09;5033110;28;20193;-69
2021/03/08 08:33:27;;;;;;;4.03;2.20;;;;;;;32.74;25.44;98758.00;5032936;28;20227;-67
2021/03/08 08:36:08;;;;;;;9.45;2.20;;;;;;;31.68;26.30;98757.50;5033203;28;20224;-63
2021/03/08 08:38:34;;;;;;;7.00;2.20;;;;;;;31.84;26.08;98753.47;5032719;28;20727;-65
2021/03/08 08:41:32;;;;;;;6.03;1.90;;;;;;;33.38;23.94;98756.81;5032453;28;20215;-67
2021/03/08 08:44:38;;;;;;;6.53;2.05;;;;;;;32.81;24.70;98747.97;5032727;28;20184;-74
2021/03/08 08:47:29;;;;;;;4.93;1.70;;;;;;;31.47;26.63;98750.47;5032361;28;20306;-73
2021/03/08 08:49:59;;;;;;;3.60;1.38;;;;;;;31.99;25.91;98745.91;5031752;28;20220;-73
2021/03/08 08:52:51;;;;;;;8.57;1.75;;;;;;;33.39;24.34;98752.22;5032186;28;20655;-73
2021/03/08 08:55:20;;;;;;;8.38;2.08;;;;;;;31.97;25.83;98744.50;5032359;28;20259;-74
2021/03/08 08:58:16;;;;;;;4.13;1.85;;;;;;;31.16;27.88;98752.00;5032120;28;20677;-72
2021/03/08 09:00:43;;;;;;;5.43;1.83;;;;;;;31.68;26.84;98744.81;5032567;28;20199;-74
2021/03/08 09:03:18;;;;;;;5.30;2.33;;;;;;;32.88;25.02;98748.72;5033443;28;20211;-74
2021/03/08 09:05:46;;;;;;;4.50;1.50;;;;;;;32.49;25.26;98752.53;5033018;28;20255;-72
2021/03/08 09:08:28;;;;;;;7.30;1.80;;;;;;;31.41;26.99;98748.59;5033908;28;20287;-70
2021/03/08 09:10:55;;;;;;;12.15;2.13;;;;;;;30.95;27.47;98751.16;5034813;28;20188;-70
2021/03/08 09:13:23;;;;;;;6.78;1.90;;;;;;;31.89;26.52;98745.56;5033482;28;20219;-70
2021/03/08 09:15:49;;;;;;;5.13;1.70;;;;;;;32.74;25.68;98745.31;5032894;28;20323;-72
2021/03/08 09:18:31;;;;;;;4.60;1.90;;;;;;;33.50;24.43;98753.34;5033199;28;20635;-76
2021/03/08 09:21:17;;;;;;;4.32;1.60;;;;;;;32.32;25.41;98744.94;5032877;28;20281;-70
2021/03/08 09:23:44;;;;;;;2.95;1.60;;;;;;;31.35;27.18;98751.09;5032925;28;20262;-71
2021/03/08 09:26:11;;;;;;;12.00;1.83;;;;;;;30.74;27.91;98745.94;5033196;28;20698;-71
2021/03/08 09:28:45;;;;;;;3.45;1.60;;;;;;;31.90;26.37;98747.22;5035461;28;20306;-69
2021/03/08 09:31:19;;;;;;;5.28;1.77;;;;;;;32.94;25.30;98744.28;5035935;28;20253;-68
2021/03/08 09:33:47;;;;;;;7.30;2.05;;;;;;;32.59;25.64;98744.75;5038406;28;20207;-71
2021/03/08 09:36:13;;;;;;;3.80;1.63;;;;;;;31.27;27.53;98747.81;5041504;28;20220;-73
2021/03/08 09:38:40;;;;;;;3.25;1.30;;;;;;;30.77;28.31;98743.66;5035551;28;20192;-70
2021/03/08 09:41:06;;;;;;;6.28;1.73;;;;;;;32.27;26.06;98747.47;5031730;28;20192;-70
2021/03/08 09:43:33;;;;;;;2.75;1.50;;;;;;;32.17;27.13;98749.81;5032180;28;20271;-71
2021/03/08 09:46:02;;;;;;;3.38;1.67;;;;;;;31.25;27.88;98749.91;5032340;28;20228;-71
2021/03/08 09:48:29;;;;;;;3.47;1.63;;;;;;;30.72;28.23;98750.72;5031945;28;20331;-71
2021/03/08 09:51:06;;;;;;;8.82;1.83;;;;;;;32.17;27.31;98744.41;5031558;28;20679;-71
2021/03/08 09:53:34;;;;;;;4.55;1.60;;;;;;;32.23;26.96;98751.66;5031428;28;20263;-70
2021/03/08 09:56:08;;;;;;;4.47;1.90;;;;;;;31.08;28.16;98738.72;5031630;28;20730;-72
2021/03/08 09:58:35;;;;;;;3.05;1.58;;;;;;;30.50;28.57;98737.41;5032005;28;20204;-70
2021/03/08 10:01:11;;;;;;;3.65;1.55;;;;;;;32.02;27.48;98733.84;5031836;28;20212;-71
2021/03/08 10:03:37;;;;;;;7.43;1.75;;;;;;;32.53;26.35;98737.53;5031736;28;20190;-70
2021/03/08 10:06:04;;;;;;;7.43;1.80;;;;;;;31.08;27.92;98738.72;5032118;28;20251;-71
2021/03/08 10:08:32;;;;;;;12.10;2.00;;;;;;;30.43;28.72;98731.19;5031393;28;20216;-70
2021/03/08 10:10:58;;;;;;;13.55;1.85;;;;;;;31.30;27.67;98732.00;5031465;28;20204;-70
2021/03/08 10:13:25;;;;;;;5.68;1.65;;;;;;;31.78;26.91;98732.72;5031806;28;20636;-69
2021/03/08 10:15:53;;;;;;;5.03;1.95;;;;;;;30.34;28.31;98732.38;5031199;28;20240;-69
2021/03/08 10:18:22;;;;;;;2.95;1.50;;;;;;;29.94;28.92;98729.59;5031434;28;20199;-72
2021/03/08 10:20:51;;;;;;;3.50;1.63;;;;;;;30.39;28.80;98721.84;5030826;28;20291;-70
2021/03/08 10:23:21;;;;;;;2.80;1.60;;;;;;;31.43;26.93;98722.22;5031662;28;20302;-71
2021/03/08 10:25:47;;;;;;;3.50;1.50;;;;;;;32.16;26.47;98732.78;5031894;28;20390;-71
2021/03/08 10:28:14;;;;;;;15.98;1.98;;;;;;;32.82;24.28;98730.66;5031418;28;20204;-69
2021/03/08 10:30:40;;;;;;;11.50;2.00;;;;;;;31.93;26.60;98730.56;5030874;28;20719;-71
2021/03/08 10:33:08;;;;;;;7.15;1.83;;;;;;;30.85;28.02;98733.72;5031341;28;20247;-69
2021/03/08 10:35:37;;;;;;;4.85;1.73;;;;;;;30.54;27.97;98724.34;5030986;28;20310;-70
2021/03/08 10:38:04;;;;;;;13.02;1.70;;;;;;;32.65;25.39;98727.66;5031254;28;20188;-72
2021/03/08 10:40:31;;;;;;;7.07;1.58;;;;;;;31.68;26.38;98727.78;5030993;28;20184;-69
2021/03/08 10:42:58;;;;;;;6.03;1.40;;;;;;;31.12;27.48;98726.44;5030774;28;20691;-72
2021/03/08 10:45:25;;;;;;;3.30;1.20;;;;;;;30.60;27.97;98721.66;5031304;28;20307;-71
2021/03/08 10:48:09;;;;;;;12.55;1.63;;;;;;;32.90;25.99;98718.72;5031125;28;20329;-71
2021/03/08 10:50:44;;;;;;;5.05;1.42;;;;;;;32.08;25.83;98720.31;5031473;28;20234;-71
2021/03/08 10:53:11;;;;;;;3.13;1.45;;;;;;;31.30;27.98;98721.19;5031230;28;20737;-69
2021/03/08 10:55:39;;;;;;;3.33;1.50;;;;;;;30.72;27.83;98715.63;5031255;28;20715;-69
2021/03/08 10:58:05;;;;;;;12.63;2.40;;;;;;;32.69;26.46;98718.03;5031459;28;20228;-69
2021/03/08 11:00:32;;;;;;;3.45;1.45;;;;;;;31.49;28.00;98715.94;5030927;28;20255;-70
2021/03/08 11:03:00;;;;;;;3.83;1.50;;;;;;;30.78;28.44;98706.72;5031803;28;20188;-70
2021/03/08 11:05:27;;;;;;;5.35;1.50;;;;;;;30.41;28.83;98717.91;5030981;28;20227;-70
2021/03/08 11:07:54;;;;;;;2.80;1.20;;;;;;;31.76;27.02;98718.56;5030882;28;20239;-71
2021/03/08 11:10:37;;;;;;;7.05;1.38;;;;;;;33.03;25.57;98725.91;5031329;28;20624;-68
2021/03/08 11:13:08;;;;;;;5.70;1.27;;;;;;;31.87;26.73;98720.59;5032773;28;20212;-70
2021/03/08 11:15:34;;;;;;;3.72;1.45;;;;;;;31.14;27.75;98716.25;5035047;28;20532;-68
2021/03/08 11:18:01;;;;;;;6.25;1.88;;;;;;;30.70;28.45;98725.81;5034263;28;20275;-71
2021/03/08 11:20:29;;;;;;;4.03;1.38;;;;;;;32.32;26.39;98725.19;5034455;28;20651;-69
2021/03/08 11:23:00;;;;;;;3.95;1.30;;;;;;;33.40;24.65;98723.25;5034655;28;20243;-68
2021/03/08 11:25:32;;;;;;;7.07;1.60;;;;;;;32.13;27.01;98727.78;5034162;28;20224;-68
2021/03/08 11:27:58;;;;;;;7.78;1.55;;;;;;;31.34;27.54;98727.84;5033939;28;20272;-69
2021/03/08 11:30:26;;;;;;;6.82;2.20;;;;;;;30.90;23.39;98726.63;5034814;28;20196;-68
2021/03/08 11:32:54;;;;;;;12.13;2.35;;;;;;;30.61;26.53;98727.88;5033898;28;20631;-70
2021/03/08 11:35:23;;;;;;;21.88;2.22;;;;;;;30.00;28.01;98723.41;5033779;28;20779;-70
2021/03/08 11:37:51;;;;;;;12.93;1.95;;;;;;;29.59;28.70;98726.94;5034672;28;20225;-72
2021/03/08 11:40:20;;;;;;;6.85;2.22;;;;;;;29.05;29.23;98721.22;5034275;28;20283;-70
2021/03/08 11:42:46;;;;;;;8.27;2.05;;;;;;;28.87;29.31;98716.31;5034672;28;20507;-74
2021/03/08 11:45:13;;;;;;;8.60;1.50;;;;;;;30.49;27.60;98710.66;5034345;28;20271;-71